Clipper Titan — C6V2055 — position and weather

sailwx.info

Track history (hours):
 
Tides and Currents Weather Stations Pressure Air Temp Water Temp Dewpoint Dewpoint Depression Visibility Wind Speed Wind Dir Waves Ship Positions

Clipper Titan

Last reported at 2015-Oct-30 21:27 UTC. Time now 2016-Feb-12 05:39 UTC.
Position S 35°06' W 054°47'.
Warning: this ship's position is months out of date.

; draft 9.8 m.

Type: Cargo ship. MMSI: 311008200.

Date/timePositionNaut miles runAvg speedWind from/ knotsBaromVisibWave heightAir tempDewpointWater temp
2015-Oct-30 21:27S 35°06' W 054°47'3511.4
2015-Oct-30 18:24S 35°05' W 055°29'1010.4
2015-Oct-30 17:28S 35°05' W 055°41'1110.6
2015-Oct-30 16:26S 35°05' W 055°54'8 8.9
2015-Oct-30 15:29S 35°06' W 056°04'8 8.5
2015-Oct-30 14:32S 35°10' W 056°13'9 9.2
2015-Oct-30 13:32S 35°10' W 056°25'1110.4
2015-Oct-30 12:31S 35°10' W 056°38'1010.1
2015-Oct-30 11:33S 35°10' W 056°50'49 9.5
2015-Oct-30 06:26S 34°45' W 057°40'6 6.9
2015-Oct-30 05:33S 34°44' W 057°47'1 1.0
2015-Oct-30 04:33S 34°44' W 057°49'0 0.1
2015-Oct-30 03:33S 34°44' W 057°49'0 0.0
2015-Oct-30 02:30S 34°44' W 057°49'0 0.1
2015-Oct-30 01:33S 34°44' W 057°49'0 0.2
2015-Oct-30 00:33S 34°44' W 057°49'0 0.1
2015-Oct-29 23:33S 34°44' W 057°49'0 0.0
2015-Oct-29 22:27S 34°44' W 057°49'0 0.0
2015-Oct-29 21:15S 34°44' W 057°49'0 0.0
2015-Oct-29 20:33S 34°44' W 057°49'0 0.1
2015-Oct-29 19:24S 34°44' W 057°49'0 0.2
2015-Oct-29 18:30S 34°44' W 057°49'0 0.0
2015-Oct-29 17:33S 34°44' W 057°49'0 0.0
2015-Oct-29 16:33S 34°44' W 057°49'0 0.0
2015-Oct-29 15:33S 34°44' W 057°49'2 2.0
2015-Oct-29 14:34S 34°43' W 057°51'1212.2
2015-Oct-29 13:33S 34°39' W 058°05'  
2015-Oct-24 23:33S 35°10' W 056°37'1312.8
2015-Oct-24 22:33S 35°10' W 056°21'1413.1
2015-Oct-24 21:30S 35°04' W 056°06'  
Track history (hours):
 
Tides and Currents Weather Stations Pressure Air Temp Water Temp Dewpoint Dewpoint Depression Visibility Wind Speed Wind Dir Waves Ship Positions

Clipper Titan

Last reported at 2015-Oct-30 21:27 UTC. Time now 2016-Feb-12 05:39 UTC.
Position S 35°06' W 054°47'.
Warning: this ship's position is months out of date.

; draft 9.8 m.

Type: Cargo ship. MMSI: 311008200.

Date/timePositionNaut miles runAvg speedWind from/ knotsBaromVisibWave heightAir tempDewpointWater temp
2015-Oct-30 21:27S 35°06' W 054°47'3511.4
2015-Oct-30 18:24S 35°05' W 055°29'1010.4
2015-Oct-30 17:28S 35°05' W 055°41'1110.6
2015-Oct-30 16:26S 35°05' W 055°54'8 8.9
2015-Oct-30 15:29S 35°06' W 056°04'8 8.5
2015-Oct-30 14:32S 35°10' W 056°13'9 9.2
2015-Oct-30 13:32S 35°10' W 056°25'1110.4
2015-Oct-30 12:31S 35°10' W 056°38'1010.1
2015-Oct-30 11:33S 35°10' W 056°50'49 9.5
2015-Oct-30 06:26S 34°45' W 057°40'6 6.9
2015-Oct-30 05:33S 34°44' W 057°47'1 1.0
2015-Oct-30 04:33S 34°44' W 057°49'0 0.1
2015-Oct-30 03:33S 34°44' W 057°49'0 0.0
2015-Oct-30 02:30S 34°44' W 057°49'0 0.1
2015-Oct-30 01:33S 34°44' W 057°49'0 0.2
2015-Oct-30 00:33S 34°44' W 057°49'0 0.1
2015-Oct-29 23:33S 34°44' W 057°49'0 0.0
2015-Oct-29 22:27S 34°44' W 057°49'0 0.0
2015-Oct-29 21:15S 34°44' W 057°49'0 0.0
2015-Oct-29 20:33S 34°44' W 057°49'0 0.1
2015-Oct-29 19:24S 34°44' W 057°49'0 0.2
2015-Oct-29 18:30S 34°44' W 057°49'0 0.0
2015-Oct-29 17:33S 34°44' W 057°49'0 0.0
2015-Oct-29 16:33S 34°44' W 057°49'0 0.0
2015-Oct-29 15:33S 34°44' W 057°49'2 2.0
2015-Oct-29 14:34S 34°43' W 057°51'1212.2
2015-Oct-29 13:33S 34°39' W 058°05'  
2015-Oct-24 23:33S 35°10' W 056°37'1312.8
2015-Oct-24 22:33S 35°10' W 056°21'1413.1
2015-Oct-24 21:30S 35°04' W 056°06'  

Dump ship's entire track history